Time;durP1;ratioP1;P1;durP2;ratioP2;P2;SDS_P1;SDS_P2;PMS_P1;PMS_P2;Temp;Humidity;BMP_temperature;BMP_pressure;BME280_temperature;BME280_humidity;BME280_pressure;Samples;Min_cycle;Max_cycle;Signal;HPM_P1;HPM_P2
2022/07/14 00:01:15;;;;;;;;;;;26.70;45.80;;;;;;5072459;28;19958;-62
2022/07/14 00:03:40;;;;;;;;;;;26.70;45.80;;;;;;5071959;28;19916;-62
2022/07/14 00:06:06;;;;;;;;;;;26.70;45.60;;;;;;5069231;28;19923;-61
2022/07/14 00:08:31;;;;;;;;;;;26.70;45.40;;;;;;5072026;28;19999;-62
2022/07/14 00:10:57;;;;;;;;;;;26.70;45.60;;;;;;5069163;28;19931;-61
2022/07/14 00:13:22;;;;;;;;;;;26.70;45.30;;;;;;5067749;28;19983;-62
2022/07/14 00:15:48;;;;;;;;;;;26.70;45.10;;;;;;5069418;28;19919;-61
2022/07/14 00:18:13;;;;;;;;;;;26.70;45.60;;;;;;5070531;28;19916;-61
2022/07/14 00:20:39;;;;;;;;;;;26.70;45.30;;;;;;5069494;28;20403;-61
2022/07/14 00:23:04;;;;;;;;;;;26.70;45.00;;;;;;5069287;28;20119;-61
2022/07/14 00:25:30;;;;;;;;;;;26.70;45.00;;;;;;5071115;28;19912;-61
2022/07/14 00:27:56;;;;;;;;;;;26.60;44.70;;;;;;5070051;28;19913;-62
2022/07/14 00:30:21;;;;;;;;;;;26.70;45.00;;;;;;5070893;28;19913;-61
2022/07/14 00:32:47;;;;;;;;;;;26.60;45.00;;;;;;5064971;28;20284;-61
2022/07/14 00:35:12;;;;;;;;;;;26.60;45.00;;;;;;5069704;28;19969;-61
2022/07/14 00:37:38;;;;;;;;;;;26.60;45.00;;;;;;5071379;28;19978;-62
2022/07/14 00:40:04;;;;;;;;;;;26.60;45.40;;;;;;5068294;28;20467;-62
2022/07/14 00:42:30;;;;;;;;;;;26.60;44.80;;;;;;5069415;28;19912;-62
2022/07/14 00:44:56;;;;;;;;;;;26.60;45.60;;;;;;5069418;28;20621;-61
2022/07/14 00:47:21;;;;;;;;;;;26.60;45.10;;;;;;5068951;28;20028;-61
2022/07/14 00:49:47;;;;;;;;;;;26.60;45.20;;;;;;5067405;28;20402;-61
2022/07/14 00:52:12;;;;;;;;;;;26.60;45.00;;;;;;5071858;28;19962;-61
2022/07/14 00:54:38;;;;;;;;;;;26.60;44.70;;;;;;5070040;28;19916;-61
2022/07/14 00:57:03;;;;;;;;;;;26.60;44.80;;;;;;5071083;28;20316;-61
2022/07/14 00:59:28;;;;;;;;;;;26.60;45.30;;;;;;5070319;28;20294;-61
2022/07/14 01:01:54;;;;;;;;;;;26.60;45.40;;;;;;5056994;28;20344;-61
2022/07/14 01:04:19;;;;;;;;;;;26.50;44.80;;;;;;5070085;28;20303;-61
2022/07/14 01:06:45;;;;;;;;;;;26.60;44.80;;;;;;5068479;28;19924;-61
2022/07/14 01:09:10;;;;;;;;;;;26.60;44.80;;;;;;5074325;28;19947;-62
2022/07/14 01:11:36;;;;;;;;;;;26.60;44.90;;;;;;5075586;28;19938;-61
2022/07/14 01:14:03;;;;;;;;;;;26.50;44.80;;;;;;5074205;28;20021;-61
2022/07/14 01:16:29;;;;;;;;;;;26.50;44.60;;;;;;5074919;28;20327;-62
2022/07/14 01:18:55;;;;;;;;;;;26.50;44.70;;;;;;5069358;28;19913;-61
2022/07/14 01:21:20;;;;;;;;;;;26.50;45.00;;;;;;5074494;28;19977;-61
2022/07/14 01:23:45;;;;;;;;;;;26.50;45.10;;;;;;5072653;28;19955;-62
2022/07/14 01:26:11;;;;;;;;;;;26.50;44.60;;;;;;5071222;28;20372;-61
2022/07/14 01:28:36;;;;;;;;;;;26.50;44.70;;;;;;5074134;28;20360;-62
2022/07/14 01:31:03;;;;;;;;;;;26.50;45.00;;;;;;5071541;28;20368;-61
2022/07/14 01:33:28;;;;;;;;;;;26.50;45.00;;;;;;5071433;28;20003;-62
2022/07/14 01:35:54;;;;;;;;;;;26.50;44.80;;;;;;5074747;28;20050;-61
2022/07/14 01:38:19;;;;;;;;;;;26.50;44.80;;;;;;5073971;28;19947;-62
2022/07/14 01:40:45;;;;;;;;;;;26.50;44.90;;;;;;5068772;28;19909;-62
2022/07/14 01:43:10;;;;;;;;;;;26.50;44.80;;;;;;5068519;28;19919;-62
2022/07/14 01:45:36;;;;;;;;;;;26.40;44.80;;;;;;5072165;28;19955;-61
2022/07/14 01:48:02;;;;;;;;;;;26.50;44.80;;;;;;5074486;28;19908;-61
2022/07/14 01:50:27;;;;;;;;;;;26.50;44.80;;;;;;5052438;28;19956;-61
2022/07/14 01:52:52;;;;;;;;;;;26.40;44.80;;;;;;5053503;28;19963;-61
2022/07/14 01:55:18;;;;;;;;;;;26.50;44.90;;;;;;5065279;28;19970;-61
2022/07/14 01:57:43;;;;;;;;;;;26.40;44.80;;;;;;5074275;28;19909;-62
2022/07/14 02:00:09;;;;;;;;;;;26.40;45.40;;;;;;5073507;28;19913;-62
2022/07/14 02:02:35;;;;;;;;;;;26.40;44.70;;;;;;5073107;28;20261;-62
2022/07/14 02:05:01;;;;;;;;;;;26.40;44.80;;;;;;5069213;28;20194;-61
2022/07/14 02:07:26;;;;;;;;;;;26.40;44.80;;;;;;5074715;28;19931;-61
2022/07/14 02:12:36;;;;;;;;;;;26.40;44.90;;;;;;5068008;28;19939;-62
2022/07/14 02:15:03;;;;;;;;;;;26.40;44.80;;;;;;5074072;28;20419;-62
2022/07/14 02:17:28;;;;;;;;;;;26.30;44.80;;;;;;5071360;28;19917;-61
2022/07/14 02:19:54;;;;;;;;;;;26.30;44.70;;;;;;5070713;28;20256;-61
2022/07/14 02:22:19;;;;;;;;;;;26.30;44.70;;;;;;5072769;28;19959;-61
2022/07/14 02:24:44;;;;;;;;;;;26.30;44.70;;;;;;5074323;28;19909;-61
2022/07/14 02:27:10;;;;;;;;;;;26.30;44.80;;;;;;5072921;28;19921;-61
2022/07/14 02:29:35;;;;;;;;;;;26.30;44.80;;;;;;5072832;28;19912;-62
2022/07/14 02:32:01;;;;;;;;;;;26.30;44.70;;;;;;5071888;28;20042;-62
2022/07/14 02:34:26;;;;;;;;;;;26.30;44.90;;;;;;5068911;28;19939;-61
2022/07/14 02:36:52;;;;;;;;;;;26.30;45.00;;;;;;5073950;28;19908;-61
2022/07/14 02:39:17;;;;;;;;;;;26.30;45.00;;;;;;5073647;28;20387;-61
2022/07/14 02:41:43;;;;;;;;;;;26.30;44.90;;;;;;5053001;28;19939;-61
2022/07/14 02:44:09;;;;;;;;;;;26.30;45.00;;;;;;5052583;28;20297;-61
2022/07/14 02:46:35;;;;;;;;;;;26.30;45.00;;;;;;5052750;28;19909;-61
2022/07/14 02:49:00;;;;;;;;;;;26.30;45.00;;;;;;5053440;28;19995;-61
2022/07/14 02:51:25;;;;;;;;;;;26.30;45.00;;;;;;5053354;28;19909;-61
2022/07/14 02:53:51;;;;;;;;;;;26.30;45.00;;;;;;5070784;28;19921;-61
2022/07/14 02:56:16;;;;;;;;;;;26.20;45.00;;;;;;5064068;28;19919;-61
2022/07/14 02:58:42;;;;;;;;;;;26.30;45.00;;;;;;5055339;28;19915;-61
2022/07/14 03:01:07;;;;;;;;;;;26.30;45.10;;;;;;5072938;28;19965;-61
2022/07/14 03:03:34;;;;;;;;;;;26.30;45.10;;;;;;5079679;28;19973;-61
2022/07/14 03:06:05;;;;;;;;;;;26.20;45.10;;;;;;5062943;28;20339;-62
2022/07/14 03:08:31;;;;;;;;;;;26.20;45.10;;;;;;5059535;28;19951;-62
2022/07/14 03:10:56;;;;;;;;;;;26.20;45.10;;;;;;5073133;28;19948;-61
2022/07/14 03:13:22;;;;;;;;;;;26.20;45.10;;;;;;5073017;28;20368;-61
2022/07/14 03:15:47;;;;;;;;;;;26.20;45.20;;;;;;5071855;28;19919;-61
2022/07/14 03:18:13;;;;;;;;;;;26.20;45.10;;;;;;5071033;28;20478;-61
2022/07/14 03:20:39;;;;;;;;;;;26.20;45.00;;;;;;5068408;28;19952;-61
2022/07/14 03:23:04;;;;;;;;;;;26.20;45.00;;;;;;5071968;28;19913;-61
2022/07/14 03:25:30;;;;;;;;;;;26.10;45.10;;;;;;5071399;28;20399;-61
2022/07/14 03:27:56;;;;;;;;;;;26.10;44.90;;;;;;5070410;28;20401;-61
2022/07/14 03:30:21;;;;;;;;;;;26.10;44.80;;;;;;5066930;28;20747;-61
2022/07/14 03:32:47;;;;;;;;;;;26.10;45.00;;;;;;5071179;28;19916;-61
2022/07/14 03:35:12;;;;;;;;;;;26.10;44.90;;;;;;5072567;28;19909;-62
2022/07/14 03:37:37;;;;;;;;;;;26.10;45.00;;;;;;5068902;28;19916;-61
2022/07/14 03:40:03;;;;;;;;;;;26.10;44.90;;;;;;5053935;28;20014;-61
2022/07/14 03:42:29;;;;;;;;;;;26.10;44.90;;;;;;5070813;28;19958;-61
2022/07/14 03:44:55;;;;;;;;;;;26.10;45.00;;;;;;5071397;28;20315;-61
2022/07/14 03:47:20;;;;;;;;;;;26.10;45.00;;;;;;5068106;28;20012;-61
2022/07/14 03:49:46;;;;;;;;;;;26.10;44.90;;;;;;5070306;28;19913;-61
2022/07/14 03:52:11;;;;;;;;;;;26.10;44.90;;;;;;5071133;28;19912;-61
2022/07/14 03:54:37;;;;;;;;;;;26.10;45.00;;;;;;5069794;28;19970;-62
2022/07/14 03:57:03;;;;;;;;;;;26.10;44.80;;;;;;5070428;28;19959;-61
2022/07/14 03:59:28;;;;;;;;;;;26.10;44.90;;;;;;5069446;28;19962;-61
2022/07/14 04:01:54;;;;;;;;;;;26.10;44.80;;;;;;5069681;28;20283;-62
2022/07/14 04:04:19;;;;;;;;;;;26.10;45.10;;;;;;5070150;28;20416;-61
2022/07/14 04:06:45;;;;;;;;;;;26.10;45.00;;;;;;5070089;28;19913;-61
2022/07/14 04:09:10;;;;;;;;;;;26.10;45.00;;;;;;5063166;28;19940;-61
2022/07/14 04:11:35;;;;;;;;;;;26.10;45.00;;;;;;5069736;28;19931;-61
2022/07/14 04:14:01;;;;;;;;;;;26.10;44.90;;;;;;5070649;28;19920;-62
2022/07/14 04:16:27;;;;;;;;;;;26.10;45.00;;;;;;5071599;28;19909;-61
2022/07/14 04:18:52;;;;;;;;;;;26.00;45.00;;;;;;5065354;28;19961;-61
2022/07/14 04:21:17;;;;;;;;;;;26.10;45.00;;;;;;5070970;28;19978;-61
2022/07/14 04:23:43;;;;;;;;;;;26.00;44.80;;;;;;5069067;28;19928;-61
2022/07/14 04:26:09;;;;;;;;;;;26.00;44.80;;;;;;5070748;28;19919;-61
2022/07/14 04:28:34;;;;;;;;;;;26.00;44.80;;;;;;5070194;28;19913;-61
2022/07/14 04:31:00;;;;;;;;;;;26.00;44.80;;;;;;5065872;28;19956;-62
2022/07/14 04:33:25;;;;;;;;;;;26.00;44.80;;;;;;5071468;28;20253;-61
2022/07/14 04:35:51;;;;;;;;;;;26.00;44.80;;;;;;5070041;28;19912;-61
2022/07/14 04:38:16;;;;;;;;;;;25.90;44.90;;;;;;5071641;28;19908;-61
2022/07/14 04:40:48;;;;;;;;;;;25.90;44.80;;;;;;5070686;28;19913;-61
2022/07/14 04:43:13;;;;;;;;;;;26.00;44.90;;;;;;5069241;28;19920;-61
2022/07/14 04:45:39;;;;;;;;;;;26.00;44.80;;;;;;5069933;28;19912;-61
2022/07/14 04:48:04;;;;;;;;;;;26.00;44.70;;;;;;5070020;28;19913;-61
2022/07/14 04:53:14;;;;;;;;;;;26.00;44.70;;;;;;5071932;28;20358;-62
2022/07/14 04:55:39;;;;;;;;;;;25.90;44.70;;;;;;5071689;28;19912;-61
2022/07/14 04:58:05;;;;;;;;;;;26.00;44.70;;;;;;5070335;28;20386;-61
2022/07/14 05:00:30;;;;;;;;;;;25.90;44.60;;;;;;5067443;28;20335;-61
2022/07/14 05:02:56;;;;;;;;;;;25.90;44.60;;;;;;5051356;28;20340;-61
2022/07/14 05:05:22;;;;;;;;;;;25.90;44.60;;;;;;5066361;28;19917;-61
2022/07/14 05:07:47;;;;;;;;;;;25.90;44.60;;;;;;5055241;28;20427;-61
2022/07/14 05:10:13;;;;;;;;;;;25.90;44.70;;;;;;5042588;28;20169;-61
2022/07/14 05:12:38;;;;;;;;;;;25.90;44.60;;;;;;5067449;28;19948;-61
2022/07/14 05:15:04;;;;;;;;;;;25.90;44.70;;;;;;5071440;28;20284;-61
2022/07/14 05:17:30;;;;;;;;;;;25.90;44.60;;;;;;5071071;28;20264;-61
2022/07/14 05:19:55;;;;;;;;;;;25.90;44.60;;;;;;5069864;28;20191;-61
2022/07/14 05:22:21;;;;;;;;;;;25.90;44.60;;;;;;5071553;28;19934;-61
2022/07/14 05:24:46;;;;;;;;;;;25.80;44.70;;;;;;5068836;28;19913;-61
2022/07/14 05:27:11;;;;;;;;;;;25.80;44.90;;;;;;5070966;28;19913;-61
2022/07/14 05:29:37;;;;;;;;;;;25.80;45.00;;;;;;5069904;28;20332;-61
2022/07/14 05:32:03;;;;;;;;;;;25.80;45.00;;;;;;5067957;28;19981;-61
2022/07/14 05:34:31;;;;;;;;;;;25.80;45.00;;;;;;5069155;28;19932;-61
2022/07/14 05:36:58;;;;;;;;;;;25.80;45.10;;;;;;5070132;28;19908;-61
2022/07/14 05:39:24;;;;;;;;;;;25.80;45.10;;;;;;5068798;28;20323;-61
2022/07/14 05:41:49;;;;;;;;;;;25.80;45.10;;;;;;5069681;28;19920;-61
2022/07/14 05:44:15;;;;;;;;;;;25.80;45.20;;;;;;5066580;28;19913;-61
2022/07/14 05:46:40;;;;;;;;;;;25.70;45.20;;;;;;5069479;28;19913;-61
2022/07/14 05:49:06;;;;;;;;;;;25.70;45.20;;;;;;5068855;28;20438;-61
2022/07/14 05:51:31;;;;;;;;;;;25.70;45.10;;;;;;5069951;28;19945;-61
2022/07/14 05:53:56;;;;;;;;;;;25.70;45.20;;;;;;5071647;28;20488;-61
2022/07/14 05:56:22;;;;;;;;;;;25.80;45.20;;;;;;5071852;28;19917;-61
2022/07/14 05:58:47;;;;;;;;;;;25.70;45.10;;;;;;5066095;28;19913;-61
2022/07/14 06:01:13;;;;;;;;;;;25.70;45.20;;;;;;5062514;28;19920;-61
2022/07/14 06:03:38;;;;;;;;;;;25.80;45.30;;;;;;5068812;28;19916;-61
2022/07/14 06:06:07;;;;;;;;;;;25.70;45.50;;;;;;5070489;28;22214;-61
2022/07/14 06:08:33;;;;;;;;;;;25.60;45.40;;;;;;5071956;28;19913;-61
2022/07/14 06:10:58;;;;;;;;;;;25.70;45.30;;;;;;5073383;28;19987;-61
2022/07/14 06:13:27;;;;;;;;;;;25.70;45.30;;;;;;5073035;28;20023;-61
2022/07/14 06:15:53;;;;;;;;;;;25.70;45.80;;;;;;5069968;28;19908;-61
2022/07/14 06:18:18;;;;;;;;;;;25.80;45.00;;;;;;5072409;28;20436;-61
2022/07/14 06:20:44;;;;;;;;;;;25.80;44.90;;;;;;5070463;28;19916;-61
2022/07/14 06:23:09;;;;;;;;;;;25.70;44.80;;;;;;5073085;28;19963;-61
2022/07/14 06:25:38;;;;;;;;;;;25.70;44.80;;;;;;5072964;28;19913;-61
2022/07/14 06:28:03;;;;;;;;;;;25.70;44.90;;;;;;5070916;28;20426;-61
2022/07/14 06:30:30;;;;;;;;;;;25.70;44.80;;;;;;5065221;28;19920;-61
2022/07/14 06:32:55;;;;;;;;;;;25.70;44.80;;;;;;5066705;28;19912;-61
2022/07/14 06:35:21;;;;;;;;;;;25.70;44.80;;;;;;5072324;28;19913;-61
2022/07/14 06:37:46;;;;;;;;;;;25.70;44.80;;;;;;5073272;28;19908;-61
2022/07/14 06:40:12;;;;;;;;;;;25.60;45.50;;;;;;5071132;28;20378;-61
2022/07/14 06:42:37;;;;;;;;;;;25.60;44.80;;;;;;5073912;28;19958;-61
2022/07/14 06:45:03;;;;;;;;;;;25.60;44.80;;;;;;5073511;28;19912;-61
2022/07/14 06:47:30;;;;;;;;;;;25.60;44.60;;;;;;5073414;28;20330;-61
2022/07/14 06:49:56;;;;;;;;;;;25.70;44.60;;;;;;5074272;28;19916;-61
2022/07/14 06:52:22;;;;;;;;;;;25.70;44.50;;;;;;5071728;28;20299;-61
2022/07/14 06:54:47;;;;;;;;;;;25.60;44.50;;;;;;5073154;28;19916;-61
2022/07/14 06:57:13;;;;;;;;;;;25.60;44.50;;;;;;5070869;28;20181;-61
2022/07/14 06:59:38;;;;;;;;;;;25.60;44.50;;;;;;5072371;28;19917;-61
2022/07/14 07:02:04;;;;;;;;;;;25.60;44.30;;;;;;5055881;28;19920;-61
2022/07/14 07:04:29;;;;;;;;;;;25.60;44.30;;;;;;5052311;28;19955;-61
2022/07/14 07:06:55;;;;;;;;;;;25.60;44.20;;;;;;5051677;28;19927;-61
2022/07/14 07:09:20;;;;;;;;;;;25.60;44.00;;;;;;5066691;28;19927;-61
2022/07/14 07:11:49;;;;;;;;;;;25.60;44.00;;;;;;5071294;28;20385;-61
2022/07/14 07:14:14;;;;;;;;;;;25.60;44.00;;;;;;5073148;28;19920;-61
2022/07/14 07:16:40;;;;;;;;;;;25.60;44.10;;;;;;5073223;28;19908;-61
2022/07/14 07:19:05;;;;;;;;;;;25.60;44.10;;;;;;5072334;28;19951;-61
2022/07/14 07:21:31;;;;;;;;;;;25.60;44.30;;;;;;5071482;28;19908;-61
2022/07/14 07:23:57;;;;;;;;;;;25.60;44.50;;;;;;5072078;28;19916;-61
2022/07/14 07:26:24;;;;;;;;;;;25.60;44.50;;;;;;5072829;28;19915;-61
2022/07/14 07:28:53;;;;;;;;;;;25.60;44.50;;;;;;5070377;28;19917;-62
2022/07/14 07:31:19;;;;;;;;;;;25.60;44.60;;;;;;5072498;28;20007;-61
2022/07/14 07:33:45;;;;;;;;;;;25.60;44.50;;;;;;5072149;28;19999;-61
2022/07/14 07:36:11;;;;;;;;;;;25.60;44.50;;;;;;5068094;28;19952;-61
2022/07/14 07:38:36;;;;;;;;;;;25.60;44.60;;;;;;5065590;28;19962;-61
2022/07/14 07:41:02;;;;;;;;;;;25.60;44.70;;;;;;5071057;28;20033;-61
2022/07/14 07:43:27;;;;;;;;;;;25.60;44.70;;;;;;5074245;28;19962;-62
2022/07/14 07:45:53;;;;;;;;;;;25.60;45.10;;;;;;5070700;28;20007;-62
2022/07/14 07:48:19;;;;;;;;;;;25.60;44.90;;;;;;5088392;28;19959;-61
2022/07/14 07:50:45;;;;;;;;;;;25.60;45.50;;;;;;5078643;28;19991;-62
2022/07/14 07:53:11;;;;;;;;;;;25.40;45.10;;;;;;5083677;28;19917;-62
2022/07/14 07:55:36;;;;;;;;;;;25.30;45.30;;;;;;5082507;28;19908;-62
2022/07/14 07:58:02;;;;;;;;;;;25.30;45.20;;;;;;5076740;28;19912;-61
2022/07/14 08:00:27;;;;;;;;;;;25.30;45.20;;;;;;5088548;28;19908;-62
2022/07/14 08:02:53;;;;;;;;;;;25.30;45.30;;;;;;5074570;28;20039;-61
2022/07/14 08:05:27;;;;;;;;;;;25.30;45.20;;;;;;5070123;28;20368;-62
2022/07/14 08:07:53;;;;;;;;;;;25.30;45.00;;;;;;5063083;28;20451;-62
2022/07/14 08:10:19;;;;;;;;;;;25.40;44.90;;;;;;5070692;28;19965;-61
2022/07/14 08:12:44;;;;;;;;;;;25.40;44.50;;;;;;5059864;28;20295;-62
2022/07/14 08:15:10;;;;;;;;;;;25.50;44.30;;;;;;5071564;28;19948;-62
2022/07/14 08:17:35;;;;;;;;;;;25.50;44.20;;;;;;5061519;28;19962;-62
2022/07/14 08:20:01;;;;;;;;;;;25.30;44.40;;;;;;5066013;28;20481;-61
2022/07/14 08:22:26;;;;;;;;;;;25.40;44.50;;;;;;5073481;28;19912;-61
2022/07/14 08:24:52;;;;;;;;;;;25.40;44.20;;;;;;5067590;28;21167;-62
2022/07/14 08:27:18;;;;;;;;;;;25.40;44.20;;;;;;5068661;28;20408;-62
2022/07/14 08:29:43;;;;;;;;;;;25.30;44.30;;;;;;5073956;28;20026;-62
2022/07/14 08:32:09;;;;;;;;;;;25.40;44.20;;;;;;5071016;28;19913;-62
2022/07/14 08:34:34;;;;;;;;;;;25.40;44.00;;;;;;5069023;28;19916;-62
2022/07/14 08:37:00;;;;;;;;;;;25.40;44.20;;;;;;5067926;28;19960;-62
2022/07/14 08:39:26;;;;;;;;;;;25.40;44.10;;;;;;5067113;28;19912;-61
2022/07/14 08:41:51;;;;;;;;;;;25.50;43.70;;;;;;5055962;28;19917;-62
2022/07/14 08:44:17;;;;;;;;;;;25.60;43.80;;;;;;5064703;28;19970;-61
2022/07/14 08:46:42;;;;;;;;;;;25.60;43.50;;;;;;5088345;28;19920;-61
2022/07/14 08:49:09;;;;;;;;;;;25.60;43.50;;;;;;5078549;28;19942;-62
2022/07/14 08:51:36;;;;;;;;;;;25.60;43.20;;;;;;5090311;28;19912;-61
2022/07/14 08:54:02;;;;;;;;;;;25.60;43.10;;;;;;5075567;28;20007;-61
2022/07/14 08:56:29;;;;;;;;;;;25.60;43.10;;;;;;5072586;28;20006;-62
2022/07/14 08:58:55;;;;;;;;;;;25.70;42.90;;;;;;5091606;28;20367;-61
2022/07/14 09:01:21;;;;;;;;;;;25.80;43.00;;;;;;5080368;28;19908;-62
2022/07/14 09:03:47;;;;;;;;;;;25.80;42.70;;;;;;5082996;28;19912;-61
2022/07/14 09:06:22;;;;;;;;;;;25.80;42.80;;;;;;5089187;28;19909;-61
2022/07/14 09:08:55;;;;;;;;;;;25.80;42.60;;;;;;5055967;28;19959;-61
2022/07/14 09:11:21;;;;;;;;;;;25.80;42.50;;;;;;5069123;28;20002;-61
2022/07/14 09:13:46;;;;;;;;;;;25.80;42.40;;;;;;5072902;28;20011;-61
2022/07/14 09:16:13;;;;;;;;;;;25.80;42.50;;;;;;5090102;28;19908;-61
2022/07/14 09:18:39;;;;;;;;;;;25.80;42.20;;;;;;5080605;28;19919;-61
2022/07/14 09:21:17;;;;;;;;;;;25.80;41.90;;;;;;5070411;28;20292;-61
2022/07/14 09:23:43;;;;;;;;;;;25.80;41.80;;;;;;5093185;28;19927;-62
2022/07/14 09:26:15;;;;;;;;;;;25.80;41.80;;;;;;5091291;28;19912;-62
2022/07/14 09:28:41;;;;;;;;;;;25.80;41.60;;;;;;5062957;28;19908;-62
2022/07/14 09:31:23;;;;;;;;;;;25.80;41.30;;;;;;5078593;28;20500;-62
2022/07/14 09:33:49;;;;;;;;;;;25.80;41.60;;;;;;5074698;28;20373;-62
2022/07/14 09:36:28;;;;;;;;;;;25.80;41.50;;;;;;5072660;28;19917;-62
2022/07/14 09:39:01;;;;;;;;;;;25.80;41.30;;;;;;5088214;28;20335;-62
2022/07/14 09:41:26;;;;;;;;;;;25.80;41.30;;;;;;5082411;28;20469;-61
2022/07/14 09:44:09;;;;;;;;;;;25.70;41.30;;;;;;5068649;28;19955;-62
2022/07/14 09:46:50;;;;;;;;;;;25.80;41.50;;;;;;5093265;28;19924;-62
2022/07/14 09:49:16;;;;;;;;;;;25.80;41.20;;;;;;5059836;28;19913;-61
2022/07/14 09:51:52;;;;;;;;;;;25.70;41.20;;;;;;5064115;28;19920;-62
2022/07/14 09:54:38;;;;;;;;;;;25.70;41.30;;;;;;5087079;28;19945;-62
2022/07/14 09:57:13;;;;;;;;;;;25.70;41.20;;;;;;5093972;28;19990;-62
2022/07/14 09:59:57;;;;;;;;;;;25.80;41.10;;;;;;5077732;28;19916;-62
2022/07/14 10:02:23;;;;;;;;;;;25.80;41.10;;;;;;5071577;28;19912;-61
2022/07/14 10:04:49;;;;;;;;;;;25.80;41.00;;;;;;5078107;28;20406;-61
2022/07/14 10:07:14;;;;;;;;;;;25.80;40.90;;;;;;5087338;28;19955;-61
2022/07/14 10:09:42;;;;;;;;;;;25.80;40.80;;;;;;5053060;28;19916;-61
2022/07/14 10:12:07;;;;;;;;;;;25.80;40.70;;;;;;5071251;28;19920;-61
2022/07/14 10:14:33;;;;;;;;;;;25.80;40.70;;;;;;5074291;28;20391;-61
2022/07/14 10:16:59;;;;;;;;;;;25.80;40.70;;;;;;5074343;28;20385;-61
2022/07/14 10:19:25;;;;;;;;;;;25.80;40.90;;;;;;5072027;28;19920;-62
2022/07/14 10:21:51;;;;;;;;;;;25.80;40.10;;;;;;5082600;28;19909;-62
2022/07/14 10:24:17;;;;;;;;;;;25.90;40.20;;;;;;5091359;28;20401;-62
2022/07/14 10:26:42;;;;;;;;;;;25.80;39.70;;;;;;5084552;28;19908;-62
2022/07/14 10:29:08;;;;;;;;;;;25.80;40.10;;;;;;5092510;28;19916;-62
2022/07/14 10:31:54;;;;;;;;;;;25.90;39.80;;;;;;5072830;28;19982;-62
2022/07/14 10:34:34;;;;;;;;;;;25.90;39.80;;;;;;5062455;28;19968;-61
2022/07/14 10:37:00;;;;;;;;;;;25.80;39.80;;;;;;5080788;28;20290;-61
2022/07/14 10:39:28;;;;;;;;;;;25.80;40.10;;;;;;5086836;28;19909;-61
2022/07/14 10:42:03;;;;;;;;;;;25.90;40.20;;;;;;5090141;28;19919;-62
2022/07/14 10:44:29;;;;;;;;;;;25.90;40.00;;;;;;5062806;28;19916;-62
2022/07/14 10:47:11;;;;;;;;;;;25.90;40.10;;;;;;5068978;28;19924;-62
2022/07/14 10:49:55;;;;;;;;;;;25.90;40.30;;;;;;5072958;28;20383;-62
2022/07/14 10:52:24;;;;;;;;;;;25.90;40.40;;;;;;5073563;28;20333;-63
2022/07/14 10:54:49;;;;;;;;;;;25.80;40.30;;;;;;5073505;28;20368;-62
2022/07/14 10:57:16;;;;;;;;;;;25.90;40.60;;;;;;5055474;28;19927;-62
2022/07/14 10:59:45;;;;;;;;;;;25.90;40.60;;;;;;5073370;28;19915;-61
2022/07/14 11:02:13;;;;;;;;;;;25.90;40.50;;;;;;5073261;28;19913;-62
2022/07/14 11:05:03;;;;;;;;;;;25.90;40.60;;;;;;5072651;28;20625;-62
2022/07/14 11:07:32;;;;;;;;;;;26.00;40.60;;;;;;5073190;28;19934;-61
2022/07/14 11:09:57;;;;;;;;;;;26.00;40.70;;;;;;5056146;28;19955;-62
2022/07/14 11:12:24;;;;;;;;;;;25.90;40.80;;;;;;5051668;28;20254;-62
2022/07/14 11:14:49;;;;;;;;;;;25.90;40.80;;;;;;5051751;28;19932;-62
2022/07/14 11:17:33;;;;;;;;;;;26.00;40.90;;;;;;5053156;28;19912;-62
2022/07/14 11:19:58;;;;;;;;;;;26.00;40.70;;;;;;5052660;28;19909;-62
2022/07/14 11:22:25;;;;;;;;;;;26.00;40.80;;;;;;5052768;28;20007;-61
2022/07/14 11:24:53;;;;;;;;;;;26.00;40.90;;;;;;5051809;28;19908;-62
2022/07/14 11:27:28;;;;;;;;;;;26.00;40.80;;;;;;5051778;28;20340;-61
2022/07/14 11:29:57;;;;;;;;;;;26.00;41.00;;;;;;5053005;28;19913;-62
2022/07/14 11:32:33;;;;;;;;;;;26.00;41.00;;;;;;5062452;28;19908;-62
2022/07/14 11:37:59;;;;;;;;;;;26.00;41.20;;;;;;5071851;28;19915;-62
2022/07/14 11:40:39;;;;;;;;;;;26.00;41.00;;;;;;5071439;28;19924;-62
2022/07/14 11:43:37;;;;;;;;;;;26.00;41.20;;;;;;5071339;28;19912;-62
2022/07/14 11:46:20;;;;;;;;;;;26.00;40.90;;;;;;5049467;28;20380;-62
2022/07/14 11:48:50;;;;;;;;;;;26.00;41.00;;;;;;5070987;28;19914;-62
2022/07/14 11:51:20;;;;;;;;;;;26.00;41.20;;;;;;5067233;28;19916;-62
2022/07/14 11:53:45;;;;;;;;;;;26.00;41.10;;;;;;5052265;28;19917;-62
2022/07/14 11:56:11;;;;;;;;;;;26.00;41.00;;;;;;5051276;28;20470;-62
2022/07/14 11:58:39;;;;;;;;;;;26.00;41.00;;;;;;5051079;28;20300;-62
2022/07/14 12:01:04;;;;;;;;;;;26.00;40.90;;;;;;5052210;28;19924;-62
2022/07/14 12:03:30;;;;;;;;;;;26.00;41.00;;;;;;5051825;28;19908;-62
2022/07/14 12:05:56;;;;;;;;;;;26.00;40.70;;;;;;5051658;28;19915;-62
2022/07/14 12:08:29;;;;;;;;;;;26.00;41.00;;;;;;5054988;28;19916;-62
2022/07/14 12:10:59;;;;;;;;;;;26.00;41.00;;;;;;5050457;28;20058;-62
2022/07/14 12:13:26;;;;;;;;;;;26.00;40.60;;;;;;5050195;28;22282;-62
2022/07/14 12:15:52;;;;;;;;;;;26.00;40.90;;;;;;5052059;28;19919;-62
2022/07/14 12:18:17;;;;;;;;;;;26.10;40.90;;;;;;5052029;28;19913;-62
2022/07/14 12:20:44;;;;;;;;;;;26.10;41.00;;;;;;5051659;28;19913;-62
2022/07/14 12:23:10;;;;;;;;;;;26.10;40.80;;;;;;5051059;28;19916;-63
2022/07/14 12:25:57;;;;;;;;;;;26.00;40.70;;;;;;5050735;28;19908;-62
2022/07/14 12:28:23;;;;;;;;;;;26.00;40.60;;;;;;5050732;28;19916;-62
2022/07/14 12:30:58;;;;;;;;;;;26.00;40.60;;;;;;5051726;28;19912;-62
2022/07/14 12:33:28;;;;;;;;;;;26.00;40.90;;;;;;5050210;28;20011;-62
2022/07/14 12:35:54;;;;;;;;;;;26.00;41.00;;;;;;5033641;28;19917;-62
2022/07/14 12:38:20;;;;;;;;;;;26.00;40.60;;;;;;5056933;28;20361;-62
2022/07/14 12:40:48;;;;;;;;;;;25.90;41.10;;;;;;5070728;28;20038;-62
2022/07/14 12:43:13;;;;;;;;;;;26.00;41.00;;;;;;5070668;28;20699;-62
2022/07/14 12:45:59;;;;;;;;;;;26.00;40.90;;;;;;5071842;28;19934;-62
2022/07/14 12:48:24;;;;;;;;;;;26.00;40.40;;;;;;5071391;28;19912;-62
2022/07/14 12:50:49;;;;;;;;;;;26.00;40.50;;;;;;5071406;28;19908;-62
2022/07/14 12:53:17;;;;;;;;;;;26.00;40.40;;;;;;5070328;28;20399;-62
2022/07/14 12:55:44;;;;;;;;;;;26.00;40.50;;;;;;5070461;28;19912;-62
2022/07/14 12:58:10;;;;;;;;;;;26.00;40.40;;;;;;5072900;28;19909;-62
2022/07/14 13:00:36;;;;;;;;;;;26.00;40.10;;;;;;5075946;28;19962;-62
2022/07/14 13:03:10;;;;;;;;;;;26.00;40.00;;;;;;5074167;28;19909;-61
2022/07/14 13:05:35;;;;;;;;;;;26.00;40.10;;;;;;5075319;28;19912;-62
2022/07/14 13:08:01;;;;;;;;;;;26.00;40.50;;;;;;5075519;28;19908;-62
2022/07/14 13:10:27;;;;;;;;;;;26.00;40.30;;;;;;5055658;28;19954;-62
2022/07/14 13:12:53;;;;;;;;;;;26.00;40.30;;;;;;5052655;28;19916;-62
2022/07/14 13:15:19;;;;;;;;;;;26.00;40.20;;;;;;5055401;28;19916;-62
2022/07/14 13:17:52;;;;;;;;;;;26.10;39.80;;;;;;5055183;28;19917;-62
2022/07/14 13:20:36;;;;;;;;;;;26.00;39.90;;;;;;5054842;28;19912;-62
2022/07/14 13:23:02;;;;;;;;;;;26.00;40.00;;;;;;5055549;28;19944;-62
2022/07/14 13:25:27;;;;;;;;;;;26.00;39.90;;;;;;5054063;28;20336;-62
2022/07/14 13:27:53;;;;;;;;;;;26.00;39.70;;;;;;5054120;28;19967;-62
2022/07/14 13:30:18;;;;;;;;;;;26.00;39.90;;;;;;5053932;28;19913;-62
2022/07/14 13:32:44;;;;;;;;;;;26.00;40.10;;;;;;5055074;28;19913;-62
2022/07/14 13:35:09;;;;;;;;;;;26.00;39.70;;;;;;5053527;28;19913;-62
2022/07/14 13:37:34;;;;;;;;;;;26.00;39.80;;;;;;5055391;28;19912;-62
2022/07/14 13:40:00;;;;;;;;;;;26.00;39.70;;;;;;5073683;28;20002;-62
2022/07/14 13:42:25;;;;;;;;;;;26.00;39.20;;;;;;5073824;28;19920;-62
2022/07/14 13:44:51;;;;;;;;;;;26.00;39.50;;;;;;5075168;28;19995;-62
2022/07/14 13:47:16;;;;;;;;;;;25.90;39.30;;;;;;5074839;28;19909;-62
2022/07/14 13:52:26;;;;;;;;;;;26.00;39.30;;;;;;5053736;28;20449;-62
2022/07/14 13:54:51;;;;;;;;;;;26.00;39.30;;;;;;5054753;28;19974;-62
2022/07/14 13:57:17;;;;;;;;;;;26.00;39.30;;;;;;5054588;28;19909;-62
2022/07/14 13:59:42;;;;;;;;;;;26.00;39.50;;;;;;5054426;28;19917;-62
2022/07/14 14:02:08;;;;;;;;;;;26.00;39.40;;;;;;5053356;28;19909;-62
2022/07/14 14:04:33;;;;;;;;;;;26.00;39.30;;;;;;5053824;28;19967;-63
2022/07/14 14:06:58;;;;;;;;;;;26.10;39.20;;;;;;5054682;28;19912;-62
2022/07/14 14:09:27;;;;;;;;;;;26.10;39.40;;;;;;5057128;28;20003;-62
2022/07/14 14:11:53;;;;;;;;;;;26.10;39.50;;;;;;5054499;28;19924;-62
2022/07/14 14:14:18;;;;;;;;;;;26.10;39.60;;;;;;5052915;28;20400;-62
2022/07/14 14:16:44;;;;;;;;;;;26.00;39.50;;;;;;5053223;28;20118;-62
2022/07/14 14:19:09;;;;;;;;;;;26.10;39.80;;;;;;5052217;28;19991;-61
2022/07/14 14:21:35;;;;;;;;;;;26.10;39.70;;;;;;5054393;28;19962;-61
2022/07/14 14:24:00;;;;;;;;;;;26.10;39.50;;;;;;5054180;28;19923;-61
2022/07/14 14:26:26;;;;;;;;;;;26.10;40.00;;;;;;5054342;28;19913;-62